Accueil
METAR-TAF:

METAR-TAF

Aéroports :

Tajima, Japon

latitude: 35-31N, longitude: 134-48E, altitude: 210 m

Observation

Le bulletin a été fait il y a 34 minutes, à 06:00 UTC
Vent 7 kt de nord-est, variant entre nord/nord-est et est
Température 26°C
Humidité 89%
Pression 1010 hPa
Visibilité 10 km ou plus
Quelques nuages à une hauteur inférieure à 100 ft
Nuages épars à une hauteur de 2000 ft, Cumulonimbus.
Nuages fragmentés à une hauteur de 3500 ft
orage, forte pluie,

METAR: RJBT 250600Z 05007KT 020V100 9999 +TSRA FEW000 SCT020CB BKN035 26/24 Q1010

Heure: 15:34 (06:34 UTC)


TAF: absent

Observations et prévisions météorologiques de plus de 4000 aéroports (messages METAR et TAF).

Les stations disponibles sont représentées par des disques jaunes et rouges sur la carte.

Passer la souris dessus pour voir le nom de la station.

Cliquer dessus pour voir les observations et prévisions météorologiques.

Pour changer de carte: cliquez sur les boutons verts avec une croix noire pour zoomer, sur le bouton vert avec un tiret pour effectuer un zoom arrière, ou sur les flèches vertes pour les cartes adjacentes.


METAR-TAF: